Time;durP1;ratioP1;P1;durP2;ratioP2;P2;SDS_P1;SDS_P2;PMS_P1;PMS_P2;Temp;Humidity;BMP_temperature;BMP_pressure;BME280_temperature;BME280_humidity;BME280_pressure;Samples;Min_cycle;Max_cycle;Signal;HPM_P1;HPM_P2
2021/11/10 00:00:41;;;;;;;21.10;13.68;;;;;;;4.21;98.50;100247.97;5112583;28;20264;-76
2021/11/10 00:03:09;;;;;;;18.98;13.90;;;;;;;4.11;98.50;100241.09;5112260;28;20184;-76
2021/11/10 00:05:36;;;;;;;21.77;16.73;;;;;;;4.08;99.23;100244.69;5113489;28;20231;-77
2021/11/10 00:08:04;;;;;;;23.60;15.13;;;;;;;3.94;99.55;100245.00;5112601;28;20636;-76
2021/11/10 00:10:31;;;;;;;21.70;14.48;;;;;;;3.92;100.00;100235.28;5112443;28;20195;-77
2021/11/10 00:15:39;;;;;;;24.23;14.68;;;;;;;3.63;100.00;100230.53;5111164;28;20223;-76
2021/11/10 00:18:06;;;;;;;18.58;13.10;;;;;;;3.77;100.00;100233.78;5112423;28;20600;-76
2021/11/10 00:20:32;;;;;;;16.15;12.90;;;;;;;3.83;100.00;100230.13;5111972;28;20286;-76
2021/11/10 00:22:59;;;;;;;39.75;23.48;;;;;;;4.03;99.67;100229.72;5112343;28;20271;-76
2021/11/10 00:25:26;;;;;;;21.00;12.45;;;;;;;3.84;98.55;100222.09;5111976;28;20270;-77
2021/11/10 00:27:52;;;;;;;20.95;12.65;;;;;;;4.02;97.18;100215.50;5111983;28;20188;-77
2021/11/10 00:30:20;;;;;;;33.67;19.83;;;;;;;4.05;96.83;100223.44;5112187;28;20200;-76
2021/11/10 00:32:47;;;;;;;37.35;22.13;;;;;;;4.07;96.61;100218.97;5111856;28;20275;-78
2021/11/10 00:35:14;;;;;;;21.60;13.68;;;;;;;3.96;96.15;100221.84;5112117;28;20657;-78
2021/11/10 00:37:40;;;;;;;17.67;13.10;;;;;;;3.72;97.96;100209.03;5112004;28;20656;-77
2021/11/10 00:40:08;;;;;;;19.90;15.05;;;;;;;3.62;99.33;100202.13;5112129;28;20271;-76
2021/11/10 00:42:35;;;;;;;22.42;14.38;;;;;;;3.34;100.00;100218.66;5112110;28;20194;-77
2021/11/10 00:45:01;;;;;;;23.00;14.73;;;;;;;3.41;100.00;100214.94;5111801;28;20635;-77
2021/11/10 00:47:29;;;;;;;22.20;15.35;;;;;;;3.33;100.00;100219.56;5111941;28;20277;-77
2021/11/10 00:49:56;;;;;;;21.65;12.68;;;;;;;3.37;100.00;100223.94;5111689;28;20186;-77
2021/11/10 00:52:22;;;;;;;32.78;15.10;;;;;;;3.28;100.00;100221.44;5113777;28;20199;-77
2021/11/10 00:54:50;;;;;;;17.90;13.68;;;;;;;3.28;100.00;100229.44;5115871;28;20208;-78
2021/11/10 00:57:17;;;;;;;19.73;14.73;;;;;;;3.26;100.00;100232.09;5116115;28;20210;-77
2021/11/10 00:59:44;;;;;;;20.25;14.18;;;;;;;3.32;100.00;100228.44;5116118;28;20647;-78
2021/11/10 01:02:10;;;;;;;24.48;14.00;;;;;;;3.29;100.00;100223.19;5115957;28;20276;-77
2021/11/10 01:04:39;;;;;;;19.88;14.30;;;;;;;3.31;100.00;100226.69;5115696;28;20198;-77
2021/11/10 01:07:06;;;;;;;18.05;13.40;;;;;;;3.15;100.00;100241.19;5115701;28;20194;-78
2021/11/10 01:09:39;;;;;;;22.65;15.73;;;;;;;2.87;100.00;100229.25;5115945;28;20195;-77
2021/11/10 01:12:07;;;;;;;24.23;15.05;;;;;;;2.88;100.00;100238.09;5116421;28;20189;-77
2021/11/10 01:14:33;;;;;;;28.67;15.23;;;;;;;3.00;100.00;100240.53;5115765;28;20814;-77
2021/11/10 01:17:00;;;;;;;26.90;15.10;;;;;;;3.01;100.00;100233.41;5116028;28;20187;-77
2021/11/10 01:19:26;;;;;;;21.58;15.02;;;;;;;2.76;100.00;100232.94;5115854;28;20289;-77
2021/11/10 01:21:54;;;;;;;19.80;14.95;;;;;;;2.72;100.00;100222.38;5115710;28;20194;-77
2021/11/10 01:24:21;;;;;;;22.63;14.98;;;;;;;2.65;100.00;100227.84;5116094;28;20203;-77
2021/11/10 01:26:48;;;;;;;21.73;14.52;;;;;;;2.70;100.00;100228.63;5116149;28;20215;-77
2021/11/10 01:29:15;;;;;;;22.70;14.45;;;;;;;2.71;100.00;100222.38;5115695;28;20237;-77
2021/11/10 01:31:41;;;;;;;18.20;13.80;;;;;;;2.67;100.00;100228.69;5115757;28;20191;-77
2021/11/10 01:34:08;;;;;;;18.48;13.40;;;;;;;2.75;100.00;100217.91;5115461;28;20285;-77
2021/11/10 01:36:36;;;;;;;16.92;13.10;;;;;;;2.71;100.00;100225.97;5115226;28;20198;-77
2021/11/10 01:39:05;;;;;;;23.33;14.50;;;;;;;2.78;100.00;100226.72;5115565;28;20198;-77
2021/11/10 01:41:32;;;;;;;22.23;13.77;;;;;;;3.01;100.00;100236.09;5114961;28;20190;-77
2021/11/10 01:43:58;;;;;;;18.00;13.15;;;;;;;3.16;99.30;100222.50;5115093;28;20194;-77
2021/11/10 01:46:27;;;;;;;20.00;13.35;;;;;;;3.04;98.98;100220.97;5115105;28;20203;-77
2021/11/10 01:48:53;;;;;;;20.33;12.68;;;;;;;2.89;99.91;100216.78;5115001;28;20288;-77
2021/11/10 01:51:20;;;;;;;22.13;14.65;;;;;;;2.88;100.00;100215.03;5115151;28;20199;-77
2021/11/10 01:53:46;;;;;;;20.70;13.57;;;;;;;2.98;98.85;100215.72;5114634;28;20203;-77
2021/11/10 01:56:17;;;;;;;20.60;14.15;;;;;;;3.11;97.29;100203.09;5114850;28;20326;-77
2021/11/10 01:58:45;;;;;;;19.48;13.48;;;;;;;3.09;97.22;100218.22;5114587;28;20191;-77
2021/11/10 02:01:11;;;;;;;16.73;10.23;;;;;;;3.22;96.81;100225.06;5114681;28;20637;-77
2021/11/10 02:03:38;;;;;;;15.95;11.32;;;;;;;3.37;95.31;100223.94;5112954;28;20275;-77
2021/11/10 02:06:04;;;;;;;12.32;9.98;;;;;;;3.39;94.59;100219.44;5114910;28;20180;-77
2021/11/10 02:08:31;;;;;;;15.70;10.25;;;;;;;3.55;93.47;100228.03;5114318;28;20198;-77
2021/11/10 02:10:58;;;;;;;15.40;10.23;;;;;;;3.46;93.10;100247.72;5114081;28;20188;-77
2021/11/10 02:13:26;;;;;;;19.83;10.35;;;;;;;3.47;93.24;100246.81;5113909;28;20234;-77
2021/11/10 02:15:53;;;;;;;14.95;9.20;;;;;;;3.27;94.64;100228.53;5113926;28;20687;-77
2021/11/10 02:18:19;;;;;;;22.40;13.50;;;;;;;3.05;95.13;100220.06;5114274;28;20548;-77
2021/11/10 02:20:50;;;;;;;19.65;13.43;;;;;;;2.89;96.73;100224.78;5114335;28;20187;-77
2021/11/10 02:23:18;;;;;;;19.63;12.88;;;;;;;2.78;96.28;100217.84;5114170;28;20264;-77
2021/11/10 02:25:45;;;;;;;16.85;12.38;;;;;;;2.51;97.55;100206.78;5113908;28;20196;-77
2021/11/10 02:28:11;;;;;;;13.70;10.63;;;;;;;2.54;98.22;100203.19;5113859;28;20218;-77
2021/11/10 02:30:38;;;;;;;15.38;11.55;;;;;;;2.47;98.98;100208.59;5106616;28;20192;-77
2021/11/10 02:33:05;;;;;;;16.73;12.32;;;;;;;2.35;100.00;100192.81;5113573;28;20218;-77
2021/11/10 02:35:33;;;;;;;18.33;12.77;;;;;;;2.12;100.00;100187.84;5113687;28;20309;-77
2021/11/10 02:38:04;;;;;;;17.50;13.63;;;;;;;2.40;100.00;100200.75;5113628;28;20191;-77
2021/11/10 02:40:31;;;;;;;17.13;12.13;;;;;;;2.66;100.00;100193.22;5113944;28;20189;-77
2021/11/10 02:42:59;;;;;;;19.52;12.80;;;;;;;2.60;99.81;100179.16;5113941;28;20546;-77
2021/11/10 02:45:29;;;;;;;17.30;13.25;;;;;;;2.46;100.00;100187.34;5113651;28;20646;-77
2021/11/10 02:47:57;;;;;;;19.65;12.07;;;;;;;2.50;100.00;100183.75;5113481;28;20191;-77
2021/11/10 02:50:29;;;;;;;13.90;11.60;;;;;;;2.33;100.00;100177.78;5113325;28;20194;-77
2021/11/10 02:52:55;;;;;;;17.88;12.43;;;;;;;2.09;100.00;100191.44;5113634;28;20194;-77
2021/11/10 02:55:23;;;;;;;18.80;12.70;;;;;;;2.18;100.00;100192.22;5113681;28;20330;-76
2021/11/10 02:57:51;;;;;;;22.80;14.13;;;;;;;2.17;100.00;100179.81;5113786;28;20546;-76
2021/11/10 03:00:18;;;;;;;18.75;11.38;;;;;;;2.08;100.00;100179.06;5113298;28;20190;-77
2021/11/10 03:02:45;;;;;;;16.60;12.57;;;;;;;1.93;100.00;100159.81;5113443;28;20678;-77
2021/11/10 03:05:11;;;;;;;15.68;11.90;;;;;;;1.95;100.00;100160.66;5113282;28;20272;-77
2021/11/10 03:07:38;;;;;;;15.70;11.70;;;;;;;2.07;100.00;100150.72;5113524;28;20202;-77
2021/11/10 03:10:06;;;;;;;16.60;11.43;;;;;;;2.14;100.00;100140.88;5113045;28;20194;-77
2021/11/10 03:12:35;;;;;;;14.63;10.73;;;;;;;2.21;100.00;100139.88;5112561;28;20186;-77
2021/11/10 03:15:03;;;;;;;16.65;10.70;;;;;;;2.25;100.00;100138.94;5109778;28;20232;-77
2021/11/10 03:17:30;;;;;;;18.60;11.70;;;;;;;1.99;100.00;100141.09;5112856;28;20184;-77
2021/11/10 03:19:56;;;;;;;17.55;12.27;;;;;;;1.97;100.00;100130.53;5113063;28;20529;-77
2021/11/10 03:22:23;;;;;;;16.55;11.50;;;;;;;1.87;100.00;100136.84;5105136;28;20185;-77
2021/11/10 03:24:50;;;;;;;19.25;12.60;;;;;;;2.10;100.00;100136.50;5113017;28;20628;-77
2021/11/10 03:27:17;;;;;;;15.70;11.50;;;;;;;2.02;100.00;100131.31;5112601;28;20728;-77
2021/11/10 03:29:50;;;;;;;19.05;11.65;;;;;;;1.83;100.00;100125.41;5112855;28;20186;-77
2021/11/10 03:32:17;;;;;;;17.75;11.60;;;;;;;1.77;100.00;100128.13;5113040;28;20189;-77
2021/11/10 03:34:46;;;;;;;17.35;12.23;;;;;;;1.77;100.00;100135.25;5113122;28;20186;-77
2021/11/10 03:37:13;;;;;;;15.77;12.00;;;;;;;1.77;100.00;100129.94;5112227;28;20202;-77
2021/11/10 03:39:40;;;;;;;19.70;12.10;;;;;;;1.74;100.00;100112.25;5112828;28;20211;-77
2021/11/10 03:42:07;;;;;;;18.63;11.52;;;;;;;1.82;100.00;100118.31;5112733;28;20193;-77
2021/11/10 03:44:34;;;;;;;16.45;12.25;;;;;;;1.79;100.00;100115.72;5112872;28;20193;-77
2021/11/10 03:47:03;;;;;;;19.27;12.02;;;;;;;1.86;100.00;100108.53;5112029;28;20190;-77
2021/11/10 03:49:30;;;;;;;14.80;10.88;;;;;;;1.96;100.00;100103.97;5112210;28;20185;-77
2021/11/10 03:51:57;;;;;;;16.88;11.38;;;;;;;1.87;100.00;100102.31;5112429;28;20197;-78
2021/11/10 03:54:23;;;;;;;15.75;11.52;;;;;;;1.88;100.00;100107.63;5112404;28;20615;-78
2021/11/10 03:56:50;;;;;;;14.57;10.98;;;;;;;1.99;100.00;100115.44;5111679;28;20205;-77
2021/11/10 03:59:16;;;;;;;18.83;11.00;;;;;;;2.06;100.00;100111.78;5112222;28;20200;-77
2021/11/10 04:01:44;;;;;;;17.67;11.95;;;;;;;1.77;100.00;100114.88;5112287;28;20232;-77
2021/11/10 04:04:12;;;;;;;14.40;10.18;;;;;;;1.74;100.00;100114.91;5112124;28;20616;-77
2021/11/10 04:06:39;;;;;;;19.52;11.27;;;;;;;1.76;100.00;100123.72;5112125;28;20676;-77
2021/11/10 04:09:06;;;;;;;17.30;10.05;;;;;;;2.10;100.00;100125.88;5112168;28;20679;-77
2021/11/10 04:11:34;;;;;;;15.32;10.18;;;;;;;2.12;100.00;100117.91;5111295;28;20187;-77
2021/11/10 04:14:00;;;;;;;15.00;10.18;;;;;;;1.98;100.00;100118.09;5111512;28;20199;-77
2021/11/10 04:16:27;;;;;;;13.68;10.20;;;;;;;1.77;100.00;100122.84;5111844;28;20202;-77
2021/11/10 04:18:55;;;;;;;17.60;10.65;;;;;;;1.87;100.00;100140.38;5111771;28;20201;-77
2021/11/10 04:21:24;;;;;;;15.98;10.88;;;;;;;2.20;100.00;100138.13;5112135;28;20281;-77
2021/11/10 04:23:53;;;;;;;16.10;10.30;;;;;;;1.88;100.00;100138.63;5111571;28;20190;-77
2021/11/10 04:26:22;;;;;;;16.60;10.85;;;;;;;1.93;100.00;100131.47;5111295;28;20624;-77
2021/11/10 04:28:49;;;;;;;15.73;10.98;;;;;;;1.96;100.00;100136.72;5111926;28;20963;-77
2021/11/10 04:31:17;;;;;;;16.27;9.68;;;;;;;2.00;99.27;100132.25;5112095;28;21129;-77
2021/11/10 04:33:44;;;;;;;16.73;10.85;;;;;;;2.11;99.32;100132.09;5111876;28;20205;-77
2021/11/10 04:36:11;;;;;;;14.15;9.77;;;;;;;2.18;98.25;100139.94;5111968;28;20642;-77
2021/11/10 04:38:39;;;;;;;13.43;10.38;;;;;;;2.19;98.06;100140.81;5111758;28;20548;-77
2021/11/10 04:41:06;;;;;;;17.95;10.82;;;;;;;2.45;97.51;100143.06;5111522;28;20194;-78
2021/11/10 04:43:33;;;;;;;17.63;12.13;;;;;;;2.52;97.12;100135.88;5111754;28;20186;-77
2021/11/10 04:46:06;;;;;;;16.63;11.20;;;;;;;2.52;97.45;100135.88;5103768;28;20188;-77
2021/11/10 04:48:36;;;;;;;17.77;12.30;;;;;;;2.49;97.83;100139.47;5111423;28;20582;-77
2021/11/10 04:51:03;;;;;;;16.15;11.80;;;;;;;2.57;97.50;100128.69;5111409;28;20248;-77
2021/11/10 04:53:29;;;;;;;22.65;14.23;;;;;;;2.59;97.00;100127.75;5111200;28;20182;-77
2021/11/10 04:55:57;;;;;;;17.02;13.50;;;;;;;2.69;96.62;100132.03;5111282;28;20222;-77
2021/11/10 04:58:24;;;;;;;19.63;12.52;;;;;;;2.58;95.84;100131.34;5111277;28;20194;-77
2021/11/10 05:00:50;;;;;;;15.95;11.40;;;;;;;2.48;95.58;100135.91;5111094;28;20544;-76
2021/11/10 05:03:17;;;;;;;17.27;10.27;;;;;;;2.45;95.62;100132.44;5111638;28;20190;-77
2021/11/10 05:05:44;;;;;;;18.65;11.02;;;;;;;2.36;96.07;100137.91;5111063;28;20190;-77
2021/11/10 05:08:10;;;;;;;15.73;11.10;;;;;;;2.25;96.63;100138.94;5111044;28;20200;-76
2021/11/10 05:10:37;;;;;;;14.40;10.40;;;;;;;2.07;97.18;100141.88;5110776;28;20190;-76
2021/11/10 05:13:05;;;;;;;14.77;10.50;;;;;;;1.83;99.52;100144.00;5111571;28;20276;-76
2021/11/10 05:15:31;;;;;;;16.63;10.50;;;;;;;1.79;100.00;100147.59;5110527;28;20230;-78
2021/11/10 05:17:58;;;;;;;17.05;10.38;;;;;;;1.72;100.00;100150.31;5110695;28;20193;-76
2021/11/10 05:20:25;;;;;;;16.05;10.30;;;;;;;1.73;100.00;100146.78;5111230;28;20195;-76
2021/11/10 05:22:52;;;;;;;15.43;11.23;;;;;;;1.70;100.00;100144.16;5111354;28;20199;-77
2021/11/10 05:25:19;;;;;;;15.60;10.52;;;;;;;1.71;100.00;100154.75;5111330;28;20587;-77
2021/11/10 05:27:46;;;;;;;13.50;10.52;;;;;;;1.87;100.00;100158.97;5110987;28;20195;-76
2021/11/10 05:30:14;;;;;;;15.20;11.35;;;;;;;1.75;100.00;100151.19;5110365;28;20201;-77
2021/11/10 05:32:42;;;;;;;21.80;11.60;;;;;;;1.76;100.00;100142.28;5111107;28;20186;-76
2021/11/10 05:35:11;;;;;;;14.23;10.50;;;;;;;1.58;100.00;100143.44;5110618;28;20232;-78
2021/11/10 05:37:38;;;;;;;18.55;11.73;;;;;;;1.45;100.00;100148.03;5111262;28;20176;-77
2021/11/10 05:40:07;;;;;;;19.17;11.50;;;;;;;1.71;100.00;100132.66;5114524;28;20284;-78
2021/11/10 05:42:34;;;;;;;16.83;11.75;;;;;;;1.69;100.00;100140.63;5114325;28;20209;-78
2021/11/10 05:45:01;;;;;;;23.05;11.90;;;;;;;1.96;100.00;100143.81;5114982;28;20214;-78
2021/11/10 05:47:29;;;;;;;19.30;10.98;;;;;;;1.92;100.00;100142.09;5113828;28;20180;-78
2021/11/10 05:49:55;;;;;;;21.80;13.70;;;;;;;1.70;100.00;100147.72;5114472;28;20188;-78
2021/11/10 05:52:22;;;;;;;17.17;11.27;;;;;;;1.78;100.00;100140.50;5114596;28;20201;-77
2021/11/10 05:54:49;;;;;;;16.48;12.45;;;;;;;1.82;100.00;100147.53;5114901;28;20273;-78
2021/11/10 05:57:17;;;;;;;18.23;12.55;;;;;;;1.84;100.00;100137.78;5114188;28;20199;-78
2021/11/10 05:59:44;;;;;;;17.08;11.45;;;;;;;2.04;100.00;100131.31;5114593;28;20283;-78
2021/11/10 06:02:11;;;;;;;21.92;11.82;;;;;;;2.10;100.00;100131.19;5113600;28;20185;-77
2021/11/10 06:04:39;;;;;;;14.35;11.07;;;;;;;2.28;99.10;100127.38;5106906;28;20510;-78
2021/11/10 06:07:07;;;;;;;17.25;12.15;;;;;;;2.45;97.82;100129.78;5114187;28;20212;-77
2021/11/10 06:09:34;;;;;;;17.17;12.18;;;;;;;2.22;96.98;100124.84;5113233;28;20196;-78
2021/11/10 06:12:00;;;;;;;16.92;11.82;;;;;;;2.05;98.88;100139.22;5114077;28;20191;-77
2021/11/10 06:14:27;;;;;;;18.25;11.85;;;;;;;2.19;99.07;100132.84;5113612;28;20226;-77
2021/11/10 06:16:54;;;;;;;14.63;10.68;;;;;;;2.09;99.11;100140.06;5113267;28;20297;-77
2021/11/10 06:19:22;;;;;;;20.92;13.27;;;;;;;2.33;99.52;100149.47;5113393;28;20188;-77
2021/11/10 06:21:50;;;;;;;15.85;12.55;;;;;;;2.10;98.76;100147.13;5113696;28;20234;-76
2021/11/10 06:24:20;;;;;;;21.58;11.68;;;;;;;1.94;100.00;100154.44;5113250;28;20278;-78
2021/11/10 06:26:47;;;;;;;19.30;12.18;;;;;;;1.88;100.00;100146.59;5111847;28;20265;-77
2021/11/10 06:29:13;;;;;;;20.98;12.90;;;;;;;1.96;100.00;100151.78;5113712;28;21039;-78
2021/11/10 06:31:40;;;;;;;21.48;15.48;;;;;;;1.94;100.00;100154.44;5113255;28;20247;-77
2021/11/10 06:34:07;;;;;;;17.20;12.73;;;;;;;2.22;100.00;100148.75;5112911;28;20199;-77
2021/11/10 06:36:33;;;;;;;20.80;14.98;;;;;;;2.36;99.73;100144.09;5112653;28;20333;-78
2021/11/10 06:39:01;;;;;;;19.75;13.48;;;;;;;1.95;100.00;100137.63;5113018;28;20189;-78
2021/11/10 06:41:28;;;;;;;25.30;15.18;;;;;;;2.12;100.00;100133.84;5113226;28;20193;-76
2021/11/10 06:43:55;;;;;;;19.38;13.10;;;;;;;2.17;100.00;100132.88;5113141;28;20208;-77
2021/11/10 06:46:22;;;;;;;19.40;12.77;;;;;;;2.16;99.77;100125.78;5112699;28;20365;-77
2021/11/10 06:48:48;;;;;;;20.70;13.80;;;;;;;2.34;99.36;100134.38;5112308;28;20200;-78
2021/11/10 06:51:15;;;;;;;20.20;13.43;;;;;;;2.19;99.33;100130.19;5112290;28;20189;-77
2021/11/10 06:53:42;;;;;;;23.35;13.32;;;;;;;2.18;98.52;100142.59;5112601;28;20289;-77
2021/11/10 06:56:10;;;;;;;20.60;15.05;;;;;;;2.23;98.35;100140.72;5112041;28;20205;-78
2021/11/10 06:58:37;;;;;;;18.65;13.10;;;;;;;2.33;97.74;100143.25;5112221;28;20232;-77
2021/11/10 07:01:05;;;;;;;20.33;12.93;;;;;;;2.32;98.21;100155.66;5111530;28;20283;-78
2021/11/10 07:03:31;;;;;;;15.50;11.35;;;;;;;2.38;97.81;100158.22;5112375;28;20968;-78
2021/11/10 07:05:58;;;;;;;22.52;13.50;;;;;;;2.41;98.01;100155.53;5112333;28;20629;-77
2021/11/10 07:08:25;;;;;;;18.60;14.20;;;;;;;2.50;98.38;100157.16;5112812;28;20926;-77
2021/11/10 07:10:51;;;;;;;26.75;13.88;;;;;;;2.51;97.15;100158.94;5112771;28;20206;-77
2021/11/10 07:13:19;;;;;;;20.02;13.65;;;;;;;2.41;97.67;100167.94;5112442;28;20185;-77
2021/11/10 07:15:46;;;;;;;18.75;13.82;;;;;;;2.46;98.26;100166.94;5112119;28;20238;-78
2021/11/10 07:18:12;;;;;;;21.60;14.85;;;;;;;2.47;98.68;100178.47;5111976;28;20227;-78
2021/11/10 07:20:39;;;;;;;28.65;15.00;;;;;;;2.54;98.39;100174.81;5112737;28;20626;-77
2021/11/10 07:23:06;;;;;;;20.90;14.10;;;;;;;2.78;96.77;100191.25;5112736;28;20286;-78
2021/11/10 07:25:33;;;;;;;27.35;14.02;;;;;;;2.87;95.75;100193.75;5111898;28;20214;-77
2021/11/10 07:27:59;;;;;;;19.85;13.68;;;;;;;2.71;94.32;100187.81;5112521;28;20270;-77
2021/11/10 07:30:27;;;;;;;17.30;14.02;;;;;;;2.84;94.21;100192.03;5112481;28;20625;-76
2021/11/10 07:32:54;;;;;;;24.13;14.25;;;;;;;2.59;94.43;100185.38;5112544;27;20193;-76
2021/11/10 07:35:21;;;;;;;23.67;13.30;;;;;;;2.74;94.33;100185.13;5103931;28;20206;-77
2021/11/10 07:37:48;;;;;;;21.35;13.35;;;;;;;2.52;94.72;100186.38;5091745;28;20589;-76
2021/11/10 07:40:16;;;;;;;22.90;14.27;;;;;;;2.39;96.07;100188.34;5091814;28;20197;-76
2021/11/10 07:42:44;;;;;;;27.25;14.80;;;;;;;2.37;95.79;100185.69;5092151;28;20232;-76
2021/11/10 07:45:14;;;;;;;21.15;14.85;;;;;;;2.53;95.24;100175.69;5091805;28;20946;-77
2021/11/10 07:47:43;;;;;;;21.30;15.00;;;;;;;2.34;96.73;100176.91;5091586;28;20260;-78
2021/11/10 07:50:13;;;;;;;20.27;13.60;;;;;;;2.54;96.37;100182.78;5097539;28;20197;-77
2021/11/10 07:52:39;;;;;;;21.85;15.60;;;;;;;2.62;95.94;100188.88;5111603;28;20638;-77
2021/11/10 07:55:07;;;;;;;22.83;16.00;;;;;;;2.81;94.86;100191.22;5111449;28;20287;-77
2021/11/10 07:57:35;;;;;;;28.10;16.65;;;;;;;3.01;93.50;100194.41;5111462;28;20214;-77
2021/11/10 08:00:04;;;;;;;21.15;15.27;;;;;;;3.26;92.35;100209.94;5111982;28;20570;-78
2021/11/10 08:02:31;;;;;;;18.45;12.95;;;;;;;3.53;90.13;100213.88;5111452;28;20214;-77
2021/11/10 08:04:59;;;;;;;20.63;13.93;;;;;;;3.65;89.00;100220.72;5111315;28;20290;-79
2021/11/10 08:07:25;;;;;;;24.73;16.42;;;;;;;3.70;89.72;100222.38;5111256;28;20191;-78
2021/11/10 08:09:52;;;;;;;21.65;15.38;;;;;;;3.72;90.31;100227.69;5111440;28;20690;-78
2021/11/10 08:12:18;;;;;;;20.38;14.77;;;;;;;3.94;88.30;100229.00;5111215;28;20275;-77
2021/11/10 08:14:45;;;;;;;18.52;13.52;;;;;;;4.03;87.79;100222.59;5111414;28;20239;-77
2021/11/10 08:17:12;;;;;;;19.73;13.05;;;;;;;3.91;88.27;100218.41;5112328;27;20208;-78
2021/11/10 08:19:38;;;;;;;18.95;14.57;;;;;;;4.04;87.30;100218.16;5112142;28;20380;-78
2021/11/10 08:22:06;;;;;;;21.08;14.65;;;;;;;4.00;87.59;100216.44;5111281;28;20194;-79
2021/11/10 08:24:33;;;;;;;21.50;15.05;;;;;;;3.81;89.11;100214.19;5111415;28;20537;-77
2021/11/10 08:27:00;;;;;;;18.95;14.25;;;;;;;3.71;89.75;100220.63;5096788;28;20275;-76
2021/11/10 08:29:27;;;;;;;21.60;14.70;;;;;;;3.90;89.80;100223.75;5090720;28;20203;-79
2021/11/10 08:31:53;;;;;;;26.90;16.40;;;;;;;4.16;88.47;100223.19;5090981;28;20185;-79
2021/11/10 08:34:20;;;;;;;22.52;16.30;;;;;;;4.04;88.24;100212.81;5090633;28;20275;-78
2021/11/10 08:36:47;;;;;;;18.05;14.45;;;;;;;4.09;88.49;100208.25;5090193;28;20228;-79
2021/11/10 08:39:15;;;;;;;23.27;14.45;;;;;;;4.04;88.56;100205.69;5090818;28;20211;-78
2021/11/10 08:41:43;;;;;;;21.77;13.75;;;;;;;4.18;87.05;100198.28;5090383;28;20184;-78
2021/11/10 08:44:10;;;;;;;22.20;15.82;;;;;;;4.32;87.57;100189.97;5090459;28;20295;-78
2021/11/10 08:46:37;;;;;;;24.58;15.73;;;;;;;4.36;86.80;100201.44;5090626;28;20195;-78
2021/11/10 08:49:03;;;;;;;19.95;14.35;;;;;;;4.67;85.81;100200.72;5090575;28;20185;-78
2021/11/10 08:51:30;;;;;;;20.75;15.45;;;;;;;4.43;86.57;100191.50;5090645;28;20200;-79
2021/11/10 08:53:56;;;;;;;26.08;15.77;;;;;;;4.53;86.71;100191.25;5090941;28;20276;-78
2021/11/10 08:56:24;;;;;;;19.80;13.60;;;;;;;4.58;85.93;100196.47;5090420;28;20235;-78
2021/11/10 08:58:51;;;;;;;20.65;14.95;;;;;;;4.57;86.72;100192.06;5090848;28;20196;-78
2021/11/10 09:01:18;;;;;;;25.10;13.93;;;;;;;4.70;86.42;100196.16;5090976;28;20545;-78
2021/11/10 09:03:45;;;;;;;21.23;14.15;;;;;;;4.79;86.50;100205.72;5090533;28;20189;-78
2021/11/10 09:06:12;;;;;;;25.15;14.30;;;;;;;4.80;86.61;100202.16;5090437;28;20196;-78
2021/11/10 09:08:39;;;;;;;20.70;14.55;;;;;;;4.74;86.59;100200.50;5091319;28;20529;-78
2021/11/10 09:11:07;;;;;;;21.95;14.13;;;;;;;4.89;86.90;100199.25;5090635;28;20200;-78
2021/11/10 09:13:35;;;;;;;21.77;15.52;;;;;;;5.07;86.50;100195.25;5093527;28;20196;-77
2021/11/10 09:16:01;;;;;;;23.23;16.35;;;;;;;5.12;85.54;100201.34;5094639;28;20242;-78
2021/11/10 09:18:28;;;;;;;24.42;15.88;;;;;;;5.25;85.22;100201.91;5095469;28;20306;-78
2021/11/10 09:20:55;;;;;;;17.08;14.52;;;;;;;5.47;83.31;100204.84;5095271;28;20272;-78
2021/11/10 09:23:22;;;;;;;19.95;14.85;;;;;;;5.61;81.88;100207.16;5095010;28;20554;-78
2021/11/10 09:25:50;;;;;;;16.75;13.00;;;;;;;5.71;82.00;100213.97;5094779;28;20192;-79
2021/11/10 09:28:20;;;;;;;18.70;14.20;;;;;;;5.73;82.17;100214.81;5095016;28;20187;-78
2021/11/10 09:30:51;;;;;;;22.67;14.82;;;;;;;5.83;82.10;100232.34;5095269;28;20583;-79
2021/11/10 09:33:19;;;;;;;24.42;14.52;;;;;;;5.97;81.31;100240.00;5094885;28;20191;-77
2021/11/10 09:35:46;;;;;;;32.42;17.70;;;;;;;6.23;80.80;100235.66;5094758;28;20224;-78
2021/11/10 09:38:14;;;;;;;25.30;16.48;;;;;;;6.73;77.94;100225.19;5094697;28;20757;-77
2021/11/10 09:40:42;;;;;;;25.17;16.70;;;;;;;6.99;76.79;100232.38;5094694;28;20189;-77
2021/11/10 09:43:09;;;;;;;23.30;17.77;;;;;;;7.03;75.69;100243.84;5094588;28;20224;-76
2021/11/10 09:45:37;;;;;;;23.88;16.63;;;;;;;7.02;74.97;100239.44;5094448;28;20271;-77
2021/11/10 09:48:07;;;;;;;31.38;20.98;;;;;;;7.06;75.03;100238.41;5095199;28;20200;-77
2021/11/10 09:50:36;;;;;;;22.10;16.00;;;;;;;6.65;75.64;100235.28;5114230;28;20206;-77
2021/11/10 09:53:04;;;;;;;27.25;18.35;;;;;;;6.50;76.93;100235.75;5113964;28;20224;-77
2021/11/10 09:55:32;;;;;;;23.65;17.15;;;;;;;6.73;76.47;100230.53;5113953;28;20529;-78
2021/11/10 09:58:00;;;;;;;27.73;16.92;;;;;;;6.84;76.16;100225.72;5114351;28;20212;-76
2021/11/10 10:00:29;;;;;;;20.27;16.10;;;;;;;7.07;75.35;100224.06;5113494;28;20200;-77
2021/11/10 10:02:57;;;;;;;33.70;22.45;;;;;;;7.21;74.53;100227.19;5114071;28;20275;-78
2021/11/10 10:05:27;;;;;;;25.45;17.50;;;;;;;7.22;74.16;100226.22;5114207;28;20186;-79
2021/11/10 10:07:56;;;;;;;22.30;16.88;;;;;;;7.28;74.26;100227.81;5114300;28;20230;-78
2021/11/10 10:10:23;;;;;;;29.85;17.08;;;;;;;7.28;74.11;100223.34;5114071;28;20204;-77
2021/11/10 10:12:52;;;;;;;26.20;15.77;;;;;;;7.48;73.56;100219.06;5114058;28;20184;-77
2021/11/10 10:15:21;;;;;;;29.77;16.15;;;;;;;7.49;73.30;100204.75;5114308;28;20335;-77
2021/11/10 10:17:49;;;;;;;22.40;14.82;;;;;;;7.64;73.11;100201.53;5113960;28;20280;-77
2021/11/10 10:20:26;;;;;;;21.65;15.25;;;;;;;7.61;72.96;100207.00;5114066;28;20275;-78
2021/11/10 10:22:54;;;;;;;43.85;19.05;;;;;;;7.80;72.58;100223.31;5113813;28;20544;-77
2021/11/10 10:25:22;;;;;;;21.92;16.00;;;;;;;7.80;72.46;100209.91;5112796;28;20200;-76
2021/11/10 10:27:54;;;;;;;20.05;14.02;;;;;;;7.80;72.76;100206.31;5114069;28;20216;-77
2021/11/10 10:30:27;;;;;;;24.40;14.68;;;;;;;7.82;72.50;100212.50;5113657;28;20204;-78
2021/11/10 10:32:56;;;;;;;21.35;14.27;;;;;;;7.78;72.71;100205.50;5113682;28;20272;-77
2021/11/10 10:35:34;;;;;;;22.67;17.35;;;;;;;7.75;73.71;100208.28;5112763;28;20188;-77
2021/11/10 10:38:01;;;;;;;25.50;18.30;;;;;;;7.86;73.42;100198.06;5113263;28;20210;-77
2021/11/10 10:40:29;;;;;;;21.40;15.13;;;;;;;7.97;73.01;100194.97;5113531;28;20214;-77
2021/11/10 10:42:57;;;;;;;22.55;15.45;;;;;;;7.73;73.42;100201.19;5113397;28;20200;-78
2021/11/10 10:45:30;;;;;;;24.77;14.88;;;;;;;7.57;74.38;100194.63;5113279;28;20220;-77
2021/11/10 10:47:59;;;;;;;21.02;15.00;;;;;;;7.99;73.03;100183.25;5113143;28;20524;-77
2021/11/10 10:50:36;;;;;;;22.13;14.45;;;;;;;7.93;73.40;100194.19;5112233;28;20211;-78
2021/11/10 10:53:02;;;;;;;19.77;14.02;;;;;;;8.12;72.86;100183.66;5113505;28;20184;-77
2021/11/10 10:55:35;;;;;;;20.45;14.65;;;;;;;7.87;73.12;100189.97;5112795;28;20986;-77
2021/11/10 10:58:03;;;;;;;22.42;14.65;;;;;;;8.21;73.76;100195.81;5113017;28;20200;-78
2021/11/10 11:00:32;;;;;;;24.38;15.98;;;;;;;8.65;72.17;100199.47;5112586;28;20184;-76
2021/11/10 11:03:27;;;;;;;23.23;16.38;;;;;;;9.00;69.79;100182.81;5113273;28;20254;-78
2021/11/10 11:05:56;;;;;;;19.23;13.35;;;;;;;9.08;69.17;100196.81;5113256;28;20274;-79
2021/11/10 11:08:44;;;;;;;22.15;17.08;;;;;;;8.96;69.26;100192.84;5112738;28;20221;-79
2021/11/10 11:11:33;;;;;;;17.63;13.43;;;;;;;8.82;70.09;100177.31;5104979;28;20302;-78
2021/11/10 11:14:00;;;;;;;19.40;13.73;;;;;;;8.77;69.94;100179.28;5109817;28;20576;-79
2021/11/10 11:16:35;;;;;;;21.48;13.75;;;;;;;8.84;69.90;100183.50;5111862;28;20198;-79
2021/11/10 11:19:12;;;;;;;17.90;13.10;;;;;;;8.96;68.50;100182.97;5112205;28;20676;-79